Legend Of The Seas — C6SL5 — position and weather

sailwx.info

Track history (hours):
 
Tides and Currents Weather Stations Pressure Air Temp Water Temp Dewpoint Dewpoint Depression Visibility Wind Speed Wind Dir Waves Ship Positions

Legend Of The Seas

Operator: Royal Caribbean Cruises Ltd

Last reported at 2017-Jun-24 05:00 UTC. Time now 2017-Jun-24 05:19 UTC.
Position N 36°06' W 005°22'.

Type: Passenger vessel. MMSI: 311378000.

Date/timePositionNaut miles runAvg speedWind from/ knotsBaromVisibWave heightAir tempDewpointWater temp
2017-Jun-24 05:00N 36°06' W 005°22'4 7.9
2017-Jun-24 04:30N 36°02' W 005°22'612.2
2017-Jun-24 04:00N 35°58' W 005°28'53 4.0
2017-Jun-23 14:41N 36°32' W 006°17'29 3.2
2017-Jun-23 05:30N 36°31' W 006°54'2817.5
2017-Jun-23 03:52N 36°31' W 007°29'817.5
2017-Jun-23 03:25N 36°31' W 007°39'717.6
2017-Jun-23 02:59N 36°32' W 007°49'917.7
2017-Jun-23 02:30N 36°32' W 007°59'917.9
2017-Jun-23 02:00N 36°32' W 008°10'918.2
2017-Jun-23 01:30N 36°32' W 008°22'917.4
2017-Jun-23 01:00N 36°30' W 008°32'1019.0
2017-Jun-23 00:30N 36°30' W 008°44'1121.8
2017-Jun-23 00:00N 36°31' W 008°58'1521.6
2017-Jun-22 23:20N 36°34' W 009°15'819.6
2017-Jun-22 22:56N 36°39' W 009°23'919.7
2017-Jun-22 22:30N 36°46' W 009°30'1219.8
2017-Jun-22 21:55N 36°57' W 009°34'1220.3
2017-Jun-22 21:20N 37°09' W 009°35'720.1
2017-Jun-22 21:00N 37°15' W 009°35'1020.0
2017-Jun-22 20:30N 37°25' W 009°34'1020.1
2017-Jun-22 20:00N 37°35' W 009°33'1020.7
2017-Jun-22 19:30N 37°45' W 009°31'1021.0
2017-Jun-22 19:00N 37°56' W 009°30'1020.7
2017-Jun-22 18:30N 38°06' W 009°28'1020.3
2017-Jun-22 18:00N 38°16' W 009°27'1019.6
2017-Jun-22 17:31N 38°26' W 009°25'1020.3
2017-Jun-22 17:01N 38°36' W 009°23'917.3
2017-Jun-22 16:30N 38°41' W 009°14'510.4
2017-Jun-22 16:00N 38°42' W 009°08'0 0.3
2017-Jun-22 15:30N 38°43' W 009°08'0 0.0
2017-Jun-22 14:57N 38°43' W 009°08'0 0.0
2017-Jun-22 14:30N 38°43' W 009°08'0 0.0
2017-Jun-22 13:30N 38°43' W 009°08'0 0.0
2017-Jun-22 13:00N 38°43' W 009°08'0 0.0
2017-Jun-22 12:30N 38°43' W 009°08'0 0.0
2017-Jun-22 12:00N 38°43' W 009°08'0 0.0
2017-Jun-22 11:30N 38°43' W 009°08'0 0.0
2017-Jun-22 11:00N 38°43' W 009°08'0 0.0
2017-Jun-22 10:27N 38°43' W 009°08'0 0.0
2017-Jun-22 09:57N 38°43' W 009°08'0 0.0
2017-Jun-22 09:30N 38°43' W 009°08'0 0.0
2017-Jun-22 09:00N 38°43' W 009°08'0 0.0
2017-Jun-22 08:27N 38°43' W 009°08'0 0.0
2017-Jun-22 08:00N 38°43' W 009°08'0 0.0
2017-Jun-22 07:30N 38°43' W 009°08'0 0.1
2017-Jun-22 07:01N 38°42' W 009°08'1 1.6
2017-Jun-22 06:31N 38°42' W 009°08'5 9.9
2017-Jun-22 06:00N 38°41' W 009°15'611.2
2017-Jun-22 05:31N 38°38' W 009°21'612.2
2017-Jun-22 05:01N 38°36' W 009°28'713.7
2017-Jun-22 04:30N 38°37' W 009°37'612.4
2017-Jun-22 04:00N 38°41' W 009°42'815.3
2017-Jun-22 03:30N 38°49' W 009°43'815.1
2017-Jun-22 03:00N 38°56' W 009°44'815.4
2017-Jun-22 02:30N 39°04' W 009°44'815.6
2017-Jun-22 02:01N 39°12' W 009°44'815.8
2017-Jun-22 01:29N 39°20' W 009°44'3914.9
2017-Jun-21 22:53N 39°57' W 009°29'12 0.3
2017-Jun-19 21:46N 40°06' W 009°40'516.9
2017-Jun-19 21:30N 40°02' W 009°41'917.7
2017-Jun-19 21:00N 39°53' W 009°43'1019.6
2017-Jun-19 20:30N 39°44' W 009°46'1019.2
2017-Jun-19 20:00N 39°34' W 009°48'918.8
2017-Jun-19 19:30N 39°25' W 009°49'918.8
2017-Jun-19 19:01N 39°16' W 009°50'917.7
2017-Jun-19 18:30N 39°07' W 009°53'1019.0
2017-Jun-19 18:00N 38°58' W 009°53'1019.4
2017-Jun-19 17:30N 38°48' W 009°52'1019.2
2017-Jun-19 17:00N 38°39' W 009°49'918.5
2017-Jun-19 16:31N 38°30' W 009°45'918.9
2017-Jun-19 16:00N 38°21' W 009°41'918.5
2017-Jun-19 15:30N 38°12' W 009°39'918.4
2017-Jun-19 15:00N 38°03' W 009°38'918.8
2017-Jun-19 14:30N 37°53' W 009°35'2819.1
2017-Jun-19 13:03N 37°27' W 009°25'219.5
2017-Jun-19 12:58N 37°25' W 009°25'2119.5
2017-Jun-19 11:52N 37°04' W 009°22'819.8
2017-Jun-19 11:28N 36°56' W 009°19'919.0
2017-Jun-19 11:00N 36°49' W 009°13'1018.5
2017-Jun-19 10:28N 36°43' W 009°03'919.0
2017-Jun-19 10:00N 36°41' W 008°52'1019.1
2017-Jun-19 09:30N 36°38' W 008°41'1019.2
2017-Jun-19 09:00N 36°36' W 008°29'918.9
2017-Jun-19 08:30N 36°33' W 008°18'1019.1
2017-Jun-19 08:00N 36°30' W 008°07'1019.5
2017-Jun-19 07:30N 36°26' W 007°56'12218.9
2017-Jun-19 01:05N 35°60' W 005°28'116.8
2017-Jun-19 01:00N 36°00' W 005°27'917.9
2017-Jun-19 00:30N 36°03' W 005°17'225 5.2
2017-Jun-17 04:58N 37°32' W 000°58'612.5
2017-Jun-17 04:30N 37°30' W 000°51'612.6
2017-Jun-17 04:00N 37°32' W 000°43'612.4
2017-Jun-17 03:30N 37°33' W 000°36'612.5
2017-Jun-17 03:00N 37°38' W 000°31'612.7
2017-Jun-17 02:30N 37°43' W 000°27'612.4
2017-Jun-17 01:59N 37°49' W 000°23'612.5
2017-Jun-17 01:28N 37°54' W 000°18'612.4
2017-Jun-17 01:00N 37°59' W 000°14'712.6
2017-Jun-17 00:29N 38°04' W 000°09'612.9
2017-Jun-17 00:00N 38°10' W 000°05'712.7
2017-Jun-16 23:27N 38°16' W 000°01'612.4
2017-Jun-16 23:00N 38°20' E 000°04'612.4
2017-Jun-16 22:30N 38°25' E 000°08'612.7
2017-Jun-16 22:00N 38°31' E 000°13'812.6
2017-Jun-16 21:21N 38°37' E 000°18'412.1
2017-Jun-16 21:00N 38°41' E 000°21'611.4
2017-Jun-16 20:27N 38°47' E 000°22'712.1
2017-Jun-16 19:52N 38°53' E 000°16'412.5
2017-Jun-16 19:31N 38°57' E 000°13'612.4
2017-Jun-16 19:00N 39°02' E 000°08'37 2.3
2017-Jun-16 03:18N 39°39' E 000°06'715.0
2017-Jun-16 02:50N 39°44' E 000°11'515.0
2017-Jun-16 02:30N 39°48' E 000°16'1115.0
2017-Jun-16 01:46N 39°56' E 000°25'415.0
2017-Jun-16 01:30N 39°59' E 000°29'714.8
2017-Jun-16 01:00N 40°03' E 000°36'714.8
2017-Jun-16 00:30N 40°08' E 000°44'714.9
2017-Jun-16 00:00N 40°12' E 000°52'715.0
2017-Jun-15 23:30N 40°17' E 000°60'714.8
2017-Jun-15 23:00N 40°21' E 001°07'714.7
2017-Jun-15 22:30N 40°26' E 001°15'714.6
2017-Jun-15 22:00N 40°30' E 001°22'714.7
2017-Jun-15 21:30N 40°35' E 001°30'714.8
2017-Jun-15 21:00N 40°40' E 001°37'714.8
2017-Jun-15 20:30N 40°46' E 001°43'714.8
2017-Jun-15 20:00N 40°52' E 001°49'815.1
2017-Jun-15 19:30N 40°58' E 001°54'815.1
2017-Jun-15 19:00N 41°04' E 002°00'815.1
2017-Jun-15 18:30N 41°10' E 002°06'815.3
2017-Jun-15 18:00N 41°17' E 002°11'4 8.3
2017-Jun-15 17:30N 41°21' E 002°11'0 0.3
2017-Jun-15 16:02N 41°22' E 002°11'0 0.0
2017-Jun-15 15:56N 41°22' E 002°11'0 0.0
2017-Jun-15 15:26N 41°22' E 002°11'0 0.0
2017-Jun-15 14:59N 41°22' E 002°11'0 0.0
2017-Jun-15 13:59N 41°22' E 002°11'0 0.0
2017-Jun-15 13:26N 41°22' E 002°11'0 0.0
2017-Jun-15 12:59N 41°22' E 002°11'0 0.0
2017-Jun-15 12:26N 41°22' E 002°11'0 0.0
2017-Jun-15 11:53N 41°22' E 002°11'0 0.0
2017-Jun-15 11:29N 41°22' E 002°11'0 0.0
2017-Jun-15 10:59N 41°22' E 002°11'0 0.0
2017-Jun-15 10:26N 41°22' E 002°11'0 0.0
2017-Jun-15 09:56N 41°22' E 002°11'0 0.0
2017-Jun-15 09:23N 41°22' E 002°11'0 0.0
2017-Jun-15 08:56N 41°22' E 002°11'0 0.0
2017-Jun-15 08:26N 41°22' E 002°11'0 0.0
2017-Jun-15 07:56N 41°22' E 002°11'0 0.0
2017-Jun-15 07:26N 41°22' E 002°11'0 0.0
2017-Jun-15 06:56N 41°22' E 002°11'0 0.0
2017-Jun-15 06:07N 41°22' E 002°11'0 0.0
2017-Jun-15 06:01N 41°22' E 002°11'2 4.0
2017-Jun-15 05:29N 41°20' E 002°10'3 5.9
2017-Jun-15 04:59N 41°17' E 002°11'510.5
2017-Jun-15 04:30N 41°12' E 002°11'612.0
2017-Jun-15 04:00N 41°06' E 002°11'612.5
2017-Jun-15 03:31N 40°60' E 002°12'612.4
2017-Jun-15 03:00N 40°54' E 002°12'612.0
2017-Jun-15 02:30N 40°48' E 002°12'611.7
2017-Jun-15 02:00N 40°42' E 002°12'611.9
2017-Jun-15 01:30N 40°36' E 002°12'611.7
2017-Jun-15 01:00N 40°30' E 002°12'611.7
2017-Jun-15 00:30N 40°24' E 002°12'612.2
2017-Jun-15 00:00N 40°18' E 002°12'611.8
2017-Jun-14 23:31N 40°12' E 002°13'611.7
2017-Jun-14 23:00N 40°06' E 002°13'611.2
2017-Jun-14 22:30N 40°01' E 002°13'511.1
2017-Jun-14 22:01N 39°55' E 002°13'611.2
2017-Jun-14 21:30N 39°49' E 002°12'611.1
2017-Jun-14 21:00N 39°44' E 002°11'611.5
2017-Jun-14 20:28N 39°38' E 002°11'511.4
2017-Jun-14 20:01N 39°33' E 002°11'611.3
2017-Jun-14 19:30N 39°29' E 002°16'611.4
2017-Jun-14 19:01N 39°25' E 002°22'611.6
2017-Jun-14 18:31N 39°25' E 002°29'610.9
2017-Jun-14 18:00N 39°28' E 002°35'5 9.8
2017-Jun-14 17:30N 39°33' E 002°39'1 1.7
2017-Jun-14 16:59N 39°33' E 002°38'0 0.0
2017-Jun-14 16:29N 39°33' E 002°38'0 0.0
2017-Jun-14 15:59N 39°33' E 002°38'0 0.0
2017-Jun-14 15:29N 39°33' E 002°38'0 0.0
2017-Jun-14 14:59N 39°33' E 002°38'0 0.0
2017-Jun-14 14:29N 39°33' E 002°38'0 0.0
2017-Jun-14 13:29N 39°33' E 002°38'0 0.0
2017-Jun-14 12:59N 39°33' E 002°38'0 0.0
2017-Jun-14 12:29N 39°33' E 002°38'0 0.0
2017-Jun-14 11:59N 39°33' E 002°38'0 0.0
2017-Jun-14 11:29N 39°33' E 002°38'0 0.0
2017-Jun-14 10:59N 39°33' E 002°38'0 0.0
2017-Jun-14 10:29N 39°33' E 002°38'0 0.0
2017-Jun-14 09:59N 39°33' E 002°38'0 0.0
2017-Jun-14 09:29N 39°33' E 002°38'0 0.0
2017-Jun-14 08:59N 39°33' E 002°38'0 0.0
2017-Jun-14 08:23N 39°33' E 002°38'0 0.0
2017-Jun-14 07:59N 39°33' E 002°38'0 0.0
2017-Jun-14 07:29N 39°33' E 002°38'0 0.0
2017-Jun-14 06:59N 39°33' E 002°38'0 0.0
2017-Jun-14 06:29N 39°33' E 002°38'0 0.0
2017-Jun-14 05:59N 39°33' E 002°38'0 0.7
2017-Jun-14 05:30N 39°33' E 002°38'  
Track history (hours):
 
Tides and Currents Weather Stations Pressure Air Temp Water Temp Dewpoint Dewpoint Depression Visibility Wind Speed Wind Dir Waves Ship Positions

Legend Of The Seas

Operator: Royal Caribbean Cruises Ltd

Last reported at 2017-Jun-24 05:00 UTC. Time now 2017-Jun-24 05:19 UTC.
Position N 36°06' W 005°22'.

Type: Passenger vessel. MMSI: 311378000.

Date/timePositionNaut miles runAvg speedWind from/ knotsBaromVisibWave heightAir tempDewpointWater temp
2017-Jun-24 05:00N 36°06' W 005°22'4 7.9
2017-Jun-24 04:30N 36°02' W 005°22'612.2
2017-Jun-24 04:00N 35°58' W 005°28'53 4.0
2017-Jun-23 14:41N 36°32' W 006°17'29 3.2
2017-Jun-23 05:30N 36°31' W 006°54'2817.5
2017-Jun-23 03:52N 36°31' W 007°29'817.5
2017-Jun-23 03:25N 36°31' W 007°39'717.6
2017-Jun-23 02:59N 36°32' W 007°49'917.7
2017-Jun-23 02:30N 36°32' W 007°59'917.9
2017-Jun-23 02:00N 36°32' W 008°10'918.2
2017-Jun-23 01:30N 36°32' W 008°22'917.4
2017-Jun-23 01:00N 36°30' W 008°32'1019.0
2017-Jun-23 00:30N 36°30' W 008°44'1121.8
2017-Jun-23 00:00N 36°31' W 008°58'1521.6
2017-Jun-22 23:20N 36°34' W 009°15'819.6
2017-Jun-22 22:56N 36°39' W 009°23'919.7
2017-Jun-22 22:30N 36°46' W 009°30'1219.8
2017-Jun-22 21:55N 36°57' W 009°34'1220.3
2017-Jun-22 21:20N 37°09' W 009°35'720.1
2017-Jun-22 21:00N 37°15' W 009°35'1020.0
2017-Jun-22 20:30N 37°25' W 009°34'1020.1
2017-Jun-22 20:00N 37°35' W 009°33'1020.7
2017-Jun-22 19:30N 37°45' W 009°31'1021.0
2017-Jun-22 19:00N 37°56' W 009°30'1020.7
2017-Jun-22 18:30N 38°06' W 009°28'1020.3
2017-Jun-22 18:00N 38°16' W 009°27'1019.6
2017-Jun-22 17:31N 38°26' W 009°25'1020.3
2017-Jun-22 17:01N 38°36' W 009°23'917.3
2017-Jun-22 16:30N 38°41' W 009°14'510.4
2017-Jun-22 16:00N 38°42' W 009°08'0 0.3
2017-Jun-22 15:30N 38°43' W 009°08'0 0.0
2017-Jun-22 14:57N 38°43' W 009°08'0 0.0
2017-Jun-22 14:30N 38°43' W 009°08'0 0.0
2017-Jun-22 13:30N 38°43' W 009°08'0 0.0
2017-Jun-22 13:00N 38°43' W 009°08'0 0.0
2017-Jun-22 12:30N 38°43' W 009°08'0 0.0
2017-Jun-22 12:00N 38°43' W 009°08'0 0.0
2017-Jun-22 11:30N 38°43' W 009°08'0 0.0
2017-Jun-22 11:00N 38°43' W 009°08'0 0.0
2017-Jun-22 10:27N 38°43' W 009°08'0 0.0
2017-Jun-22 09:57N 38°43' W 009°08'0 0.0
2017-Jun-22 09:30N 38°43' W 009°08'0 0.0
2017-Jun-22 09:00N 38°43' W 009°08'0 0.0
2017-Jun-22 08:27N 38°43' W 009°08'0 0.0
2017-Jun-22 08:00N 38°43' W 009°08'0 0.0
2017-Jun-22 07:30N 38°43' W 009°08'0 0.1
2017-Jun-22 07:01N 38°42' W 009°08'1 1.6
2017-Jun-22 06:31N 38°42' W 009°08'5 9.9
2017-Jun-22 06:00N 38°41' W 009°15'611.2
2017-Jun-22 05:31N 38°38' W 009°21'612.2
2017-Jun-22 05:01N 38°36' W 009°28'713.7
2017-Jun-22 04:30N 38°37' W 009°37'612.4
2017-Jun-22 04:00N 38°41' W 009°42'815.3
2017-Jun-22 03:30N 38°49' W 009°43'815.1
2017-Jun-22 03:00N 38°56' W 009°44'815.4
2017-Jun-22 02:30N 39°04' W 009°44'815.6
2017-Jun-22 02:01N 39°12' W 009°44'815.8
2017-Jun-22 01:29N 39°20' W 009°44'3914.9
2017-Jun-21 22:53N 39°57' W 009°29'12 0.3
2017-Jun-19 21:46N 40°06' W 009°40'516.9
2017-Jun-19 21:30N 40°02' W 009°41'917.7
2017-Jun-19 21:00N 39°53' W 009°43'1019.6
2017-Jun-19 20:30N 39°44' W 009°46'1019.2
2017-Jun-19 20:00N 39°34' W 009°48'918.8
2017-Jun-19 19:30N 39°25' W 009°49'918.8
2017-Jun-19 19:01N 39°16' W 009°50'917.7
2017-Jun-19 18:30N 39°07' W 009°53'1019.0
2017-Jun-19 18:00N 38°58' W 009°53'1019.4
2017-Jun-19 17:30N 38°48' W 009°52'1019.2
2017-Jun-19 17:00N 38°39' W 009°49'918.5
2017-Jun-19 16:31N 38°30' W 009°45'918.9
2017-Jun-19 16:00N 38°21' W 009°41'918.5
2017-Jun-19 15:30N 38°12' W 009°39'918.4
2017-Jun-19 15:00N 38°03' W 009°38'918.8
2017-Jun-19 14:30N 37°53' W 009°35'2819.1
2017-Jun-19 13:03N 37°27' W 009°25'219.5
2017-Jun-19 12:58N 37°25' W 009°25'2119.5
2017-Jun-19 11:52N 37°04' W 009°22'819.8
2017-Jun-19 11:28N 36°56' W 009°19'919.0
2017-Jun-19 11:00N 36°49' W 009°13'1018.5
2017-Jun-19 10:28N 36°43' W 009°03'919.0
2017-Jun-19 10:00N 36°41' W 008°52'1019.1
2017-Jun-19 09:30N 36°38' W 008°41'1019.2
2017-Jun-19 09:00N 36°36' W 008°29'918.9
2017-Jun-19 08:30N 36°33' W 008°18'1019.1
2017-Jun-19 08:00N 36°30' W 008°07'1019.5
2017-Jun-19 07:30N 36°26' W 007°56'12218.9
2017-Jun-19 01:05N 35°60' W 005°28'116.8
2017-Jun-19 01:00N 36°00' W 005°27'917.9
2017-Jun-19 00:30N 36°03' W 005°17'225 5.2
2017-Jun-17 04:58N 37°32' W 000°58'612.5
2017-Jun-17 04:30N 37°30' W 000°51'612.6
2017-Jun-17 04:00N 37°32' W 000°43'612.4
2017-Jun-17 03:30N 37°33' W 000°36'612.5
2017-Jun-17 03:00N 37°38' W 000°31'612.7
2017-Jun-17 02:30N 37°43' W 000°27'612.4
2017-Jun-17 01:59N 37°49' W 000°23'612.5
2017-Jun-17 01:28N 37°54' W 000°18'612.4
2017-Jun-17 01:00N 37°59' W 000°14'712.6
2017-Jun-17 00:29N 38°04' W 000°09'612.9
2017-Jun-17 00:00N 38°10' W 000°05'712.7
2017-Jun-16 23:27N 38°16' W 000°01'612.4
2017-Jun-16 23:00N 38°20' E 000°04'612.4
2017-Jun-16 22:30N 38°25' E 000°08'612.7
2017-Jun-16 22:00N 38°31' E 000°13'812.6
2017-Jun-16 21:21N 38°37' E 000°18'412.1
2017-Jun-16 21:00N 38°41' E 000°21'611.4
2017-Jun-16 20:27N 38°47' E 000°22'712.1
2017-Jun-16 19:52N 38°53' E 000°16'412.5
2017-Jun-16 19:31N 38°57' E 000°13'612.4
2017-Jun-16 19:00N 39°02' E 000°08'37 2.3
2017-Jun-16 03:18N 39°39' E 000°06'715.0
2017-Jun-16 02:50N 39°44' E 000°11'515.0
2017-Jun-16 02:30N 39°48' E 000°16'1115.0
2017-Jun-16 01:46N 39°56' E 000°25'415.0
2017-Jun-16 01:30N 39°59' E 000°29'714.8
2017-Jun-16 01:00N 40°03' E 000°36'714.8
2017-Jun-16 00:30N 40°08' E 000°44'714.9
2017-Jun-16 00:00N 40°12' E 000°52'715.0
2017-Jun-15 23:30N 40°17' E 000°60'714.8
2017-Jun-15 23:00N 40°21' E 001°07'714.7
2017-Jun-15 22:30N 40°26' E 001°15'714.6
2017-Jun-15 22:00N 40°30' E 001°22'714.7
2017-Jun-15 21:30N 40°35' E 001°30'714.8
2017-Jun-15 21:00N 40°40' E 001°37'714.8
2017-Jun-15 20:30N 40°46' E 001°43'714.8
2017-Jun-15 20:00N 40°52' E 001°49'815.1
2017-Jun-15 19:30N 40°58' E 001°54'815.1
2017-Jun-15 19:00N 41°04' E 002°00'815.1
2017-Jun-15 18:30N 41°10' E 002°06'815.3
2017-Jun-15 18:00N 41°17' E 002°11'4 8.3
2017-Jun-15 17:30N 41°21' E 002°11'0 0.3
2017-Jun-15 16:02N 41°22' E 002°11'0 0.0
2017-Jun-15 15:56N 41°22' E 002°11'0 0.0
2017-Jun-15 15:26N 41°22' E 002°11'0 0.0
2017-Jun-15 14:59N 41°22' E 002°11'0 0.0
2017-Jun-15 13:59N 41°22' E 002°11'0 0.0
2017-Jun-15 13:26N 41°22' E 002°11'0 0.0
2017-Jun-15 12:59N 41°22' E 002°11'0 0.0
2017-Jun-15 12:26N 41°22' E 002°11'0 0.0
2017-Jun-15 11:53N 41°22' E 002°11'0 0.0
2017-Jun-15 11:29N 41°22' E 002°11'0 0.0
2017-Jun-15 10:59N 41°22' E 002°11'0 0.0
2017-Jun-15 10:26N 41°22' E 002°11'0 0.0
2017-Jun-15 09:56N 41°22' E 002°11'0 0.0
2017-Jun-15 09:23N 41°22' E 002°11'0 0.0
2017-Jun-15 08:56N 41°22' E 002°11'0 0.0
2017-Jun-15 08:26N 41°22' E 002°11'0 0.0
2017-Jun-15 07:56N 41°22' E 002°11'0 0.0
2017-Jun-15 07:26N 41°22' E 002°11'0 0.0
2017-Jun-15 06:56N 41°22' E 002°11'0 0.0
2017-Jun-15 06:07N 41°22' E 002°11'0 0.0
2017-Jun-15 06:01N 41°22' E 002°11'2 4.0
2017-Jun-15 05:29N 41°20' E 002°10'3 5.9
2017-Jun-15 04:59N 41°17' E 002°11'510.5
2017-Jun-15 04:30N 41°12' E 002°11'612.0
2017-Jun-15 04:00N 41°06' E 002°11'612.5
2017-Jun-15 03:31N 40°60' E 002°12'612.4
2017-Jun-15 03:00N 40°54' E 002°12'612.0
2017-Jun-15 02:30N 40°48' E 002°12'611.7
2017-Jun-15 02:00N 40°42' E 002°12'611.9
2017-Jun-15 01:30N 40°36' E 002°12'611.7
2017-Jun-15 01:00N 40°30' E 002°12'611.7
2017-Jun-15 00:30N 40°24' E 002°12'612.2
2017-Jun-15 00:00N 40°18' E 002°12'611.8
2017-Jun-14 23:31N 40°12' E 002°13'611.7
2017-Jun-14 23:00N 40°06' E 002°13'611.2
2017-Jun-14 22:30N 40°01' E 002°13'511.1
2017-Jun-14 22:01N 39°55' E 002°13'611.2
2017-Jun-14 21:30N 39°49' E 002°12'611.1
2017-Jun-14 21:00N 39°44' E 002°11'611.5
2017-Jun-14 20:28N 39°38' E 002°11'511.4
2017-Jun-14 20:01N 39°33' E 002°11'611.3
2017-Jun-14 19:30N 39°29' E 002°16'611.4
2017-Jun-14 19:01N 39°25' E 002°22'611.6
2017-Jun-14 18:31N 39°25' E 002°29'610.9
2017-Jun-14 18:00N 39°28' E 002°35'5 9.8
2017-Jun-14 17:30N 39°33' E 002°39'1 1.7
2017-Jun-14 16:59N 39°33' E 002°38'0 0.0
2017-Jun-14 16:29N 39°33' E 002°38'0 0.0
2017-Jun-14 15:59N 39°33' E 002°38'0 0.0
2017-Jun-14 15:29N 39°33' E 002°38'0 0.0
2017-Jun-14 14:59N 39°33' E 002°38'0 0.0
2017-Jun-14 14:29N 39°33' E 002°38'0 0.0
2017-Jun-14 13:29N 39°33' E 002°38'0 0.0
2017-Jun-14 12:59N 39°33' E 002°38'0 0.0
2017-Jun-14 12:29N 39°33' E 002°38'0 0.0
2017-Jun-14 11:59N 39°33' E 002°38'0 0.0
2017-Jun-14 11:29N 39°33' E 002°38'0 0.0
2017-Jun-14 10:59N 39°33' E 002°38'0 0.0
2017-Jun-14 10:29N 39°33' E 002°38'0 0.0
2017-Jun-14 09:59N 39°33' E 002°38'0 0.0
2017-Jun-14 09:29N 39°33' E 002°38'0 0.0
2017-Jun-14 08:59N 39°33' E 002°38'0 0.0
2017-Jun-14 08:23N 39°33' E 002°38'0 0.0
2017-Jun-14 07:59N 39°33' E 002°38'0 0.0
2017-Jun-14 07:29N 39°33' E 002°38'0 0.0
2017-Jun-14 06:59N 39°33' E 002°38'0 0.0
2017-Jun-14 06:29N 39°33' E 002°38'0 0.0
2017-Jun-14 05:59N 39°33' E 002°38'0 0.7
2017-Jun-14 05:30N 39°33' E 002°38'  

Dump ship's entire track history